sensor_id;sensor_type;location;lat;lon;timestamp;P1;durP1;ratioP1;P2;durP2;ratioP2
34146;SDS011;20423;49.448;9.056;2022-12-29T00:02:06;4.63;;;3.15;;
34146;SDS011;20423;49.448;9.056;2022-12-29T00:04:32;7.97;;;2.70;;
34146;SDS011;20423;49.448;9.056;2022-12-29T00:06:58;4.75;;;2.78;;
34146;SDS011;20423;49.448;9.056;2022-12-29T00:09:25;5.63;;;2.78;;
34146;SDS011;20423;49.448;9.056;2022-12-29T00:11:51;4.15;;;2.50;;
34146;SDS011;20423;49.448;9.056;2022-12-29T00:14:17;8.00;;;2.72;;
34146;SDS011;20423;49.448;9.056;2022-12-29T00:17:02;13.52;;;2.85;;
34146;SDS011;20423;49.448;9.056;2022-12-29T00:19:28;4.90;;;2.88;;
34146;SDS011;20423;49.448;9.056;2022-12-29T00:22:12;5.40;;;2.50;;
34146;SDS011;20423;49.448;9.056;2022-12-29T00:24:57;8.15;;;2.58;;
34146;SDS011;20423;49.448;9.056;2022-12-29T00:27:42;8.23;;;2.67;;
34146;SDS011;20423;49.448;9.056;2022-12-29T00:30:26;7.30;;;4.50;;
34146;SDS011;20423;49.448;9.056;2022-12-29T00:33:18;6.38;;;2.47;;
34146;SDS011;20423;49.448;9.056;2022-12-29T00:36:05;7.55;;;2.97;;
34146;SDS011;20423;49.448;9.056;2022-12-29T00:38:37;7.72;;;3.00;;
34146;SDS011;20423;49.448;9.056;2022-12-29T00:41:24;6.07;;;2.85;;
34146;SDS011;20423;49.448;9.056;2022-12-29T00:44:08;3.92;;;2.45;;
34146;SDS011;20423;49.448;9.056;2022-12-29T00:46:36;6.28;;;2.70;;
34146;SDS011;20423;49.448;9.056;2022-12-29T00:49:03;4.78;;;2.45;;
34146;SDS011;20423;49.448;9.056;2022-12-29T00:51:48;4.38;;;2.80;;
34146;SDS011;20423;49.448;9.056;2022-12-29T00:54:14;4.97;;;2.50;;
34146;SDS011;20423;49.448;9.056;2022-12-29T00:56:40;4.22;;;2.55;;
34146;SDS011;20423;49.448;9.056;2022-12-29T00:59:07;6.35;;;2.35;;
34146;SDS011;20423;49.448;9.056;2022-12-29T01:01:35;6.68;;;2.40;;
34146;SDS011;20423;49.448;9.056;2022-12-29T01:04:02;8.13;;;2.95;;
34146;SDS011;20423;49.448;9.056;2022-12-29T01:06:28;8.27;;;2.72;;
34146;SDS011;20423;49.448;9.056;2022-12-29T01:08:53;6.43;;;2.67;;
34146;SDS011;20423;49.448;9.056;2022-12-29T01:11:38;4.90;;;2.60;;
34146;SDS011;20423;49.448;9.056;2022-12-29T01:14:05;6.43;;;3.30;;
34146;SDS011;20423;49.448;9.056;2022-12-29T01:16:31;7.25;;;2.75;;
34146;SDS011;20423;49.448;9.056;2022-12-29T01:18:57;8.13;;;3.65;;
34146;SDS011;20423;49.448;9.056;2022-12-29T01:21:23;7.70;;;3.45;;
34146;SDS011;20423;49.448;9.056;2022-12-29T01:23:50;5.13;;;2.97;;
34146;SDS011;20423;49.448;9.056;2022-12-29T01:26:16;6.10;;;3.58;;
34146;SDS011;20423;49.448;9.056;2022-12-29T01:28:43;9.23;;;3.53;;
34146;SDS011;20423;49.448;9.056;2022-12-29T01:31:09;6.70;;;3.58;;
34146;SDS011;20423;49.448;9.056;2022-12-29T01:33:37;10.00;;;3.83;;
34146;SDS011;20423;49.448;9.056;2022-12-29T01:36:07;8.93;;;3.95;;
34146;SDS011;20423;49.448;9.056;2022-12-29T01:38:34;7.55;;;3.95;;
34146;SDS011;20423;49.448;9.056;2022-12-29T01:41:01;6.28;;;3.85;;
34146;SDS011;20423;49.448;9.056;2022-12-29T01:43:45;8.98;;;4.22;;
34146;SDS011;20423;49.448;9.056;2022-12-29T01:46:28;14.68;;;5.05;;
34146;SDS011;20423;49.448;9.056;2022-12-29T01:51:56;7.43;;;4.18;;
34146;SDS011;20423;49.448;9.056;2022-12-29T01:54:52;7.22;;;3.53;;
34146;SDS011;20423;49.448;9.056;2022-12-29T01:57:20;8.00;;;4.05;;
34146;SDS011;20423;49.448;9.056;2022-12-29T02:02:18;8.00;;;4.07;;
34146;SDS011;20423;49.448;9.056;2022-12-29T02:04:44;10.40;;;4.13;;
34146;SDS011;20423;49.448;9.056;2022-12-29T02:07:13;10.85;;;4.22;;
34146;SDS011;20423;49.448;9.056;2022-12-29T02:09:43;9.32;;;4.00;;
34146;SDS011;20423;49.448;9.056;2022-12-29T02:12:11;8.45;;;3.95;;
34146;SDS011;20423;49.448;9.056;2022-12-29T02:14:37;12.32;;;4.57;;
34146;SDS011;20423;49.448;9.056;2022-12-29T02:35:07;8.77;;;4.72;;
34146;SDS011;20423;49.448;9.056;2022-12-29T02:38:03;12.32;;;5.30;;
34146;SDS011;20423;49.448;9.056;2022-12-29T02:40:47;11.77;;;5.38;;
34146;SDS011;20423;49.448;9.056;2022-12-29T02:43:32;12.35;;;5.63;;
34146;SDS011;20423;49.448;9.056;2022-12-29T02:48:47;15.13;;;6.13;;
34146;SDS011;20423;49.448;9.056;2022-12-29T02:51:27;12.75;;;5.82;;
34146;SDS011;20423;49.448;9.056;2022-12-29T02:53:57;6.68;;;5.00;;
34146;SDS011;20423;49.448;9.056;2022-12-29T02:56:41;11.43;;;5.82;;
34146;SDS011;20423;49.448;9.056;2022-12-29T02:59:07;10.93;;;5.45;;
34146;SDS011;20423;49.448;9.056;2022-12-29T03:01:39;13.35;;;6.70;;
34146;SDS011;20423;49.448;9.056;2022-12-29T03:05:04;14.90;;;6.05;;
34146;SDS011;20423;49.448;9.056;2022-12-29T03:13:26;19.58;;;7.82;;
34146;SDS011;20423;49.448;9.056;2022-12-29T03:16:42;11.38;;;5.45;;
34146;SDS011;20423;49.448;9.056;2022-12-29T03:22:16;14.68;;;7.22;;
34146;SDS011;20423;49.448;9.056;2022-12-29T03:25:03;9.15;;;6.15;;
34146;SDS011;20423;49.448;9.056;2022-12-29T03:27:35;12.88;;;7.03;;
34146;SDS011;20423;49.448;9.056;2022-12-29T03:30:06;14.32;;;7.32;;
34146;SDS011;20423;49.448;9.056;2022-12-29T03:32:39;14.32;;;7.03;;
34146;SDS011;20423;49.448;9.056;2022-12-29T03:35:13;10.63;;;6.03;;
34146;SDS011;20423;49.448;9.056;2022-12-29T03:37:43;23.23;;;7.20;;
34146;SDS011;20423;49.448;9.056;2022-12-29T03:40:29;10.25;;;5.70;;
34146;SDS011;20423;49.448;9.056;2022-12-29T03:42:57;15.63;;;5.43;;
34146;SDS011;20423;49.448;9.056;2022-12-29T03:45:24;10.05;;;5.22;;
34146;SDS011;20423;49.448;9.056;2022-12-29T03:47:50;9.55;;;5.57;;
34146;SDS011;20423;49.448;9.056;2022-12-29T03:50:18;11.23;;;5.25;;
34146;SDS011;20423;49.448;9.056;2022-12-29T03:52:43;11.15;;;4.93;;
34146;SDS011;20423;49.448;9.056;2022-12-29T03:55:09;10.85;;;4.68;;
34146;SDS011;20423;49.448;9.056;2022-12-29T03:57:37;9.38;;;4.68;;
34146;SDS011;20423;49.448;9.056;2022-12-29T04:00:06;11.88;;;4.50;;
34146;SDS011;20423;49.448;9.056;2022-12-29T04:02:40;18.98;;;4.80;;
34146;SDS011;20423;49.448;9.056;2022-12-29T04:05:07;12.18;;;4.57;;
34146;SDS011;20423;49.448;9.056;2022-12-29T04:07:33;8.52;;;5.00;;
34146;SDS011;20423;49.448;9.056;2022-12-29T04:10:02;17.48;;;4.63;;
34146;SDS011;20423;49.448;9.056;2022-12-29T04:12:29;8.00;;;4.20;;
34146;SDS011;20423;49.448;9.056;2022-12-29T04:14:55;13.48;;;4.07;;
34146;SDS011;20423;49.448;9.056;2022-12-29T04:17:21;11.45;;;3.75;;
34146;SDS011;20423;49.448;9.056;2022-12-29T04:19:49;11.27;;;3.55;;
34146;SDS011;20423;49.448;9.056;2022-12-29T04:22:16;8.07;;;3.50;;
34146;SDS011;20423;49.448;9.056;2022-12-29T04:24:41;8.98;;;3.22;;
34146;SDS011;20423;49.448;9.056;2022-12-29T04:27:09;4.60;;;3.10;;
34146;SDS011;20423;49.448;9.056;2022-12-29T04:30:04;8.75;;;3.63;;
34146;SDS011;20423;49.448;9.056;2022-12-29T04:32:40;8.75;;;3.38;;
34146;SDS011;20423;49.448;9.056;2022-12-29T04:35:06;4.05;;;2.78;;
34146;SDS011;20423;49.448;9.056;2022-12-29T04:37:32;4.97;;;2.80;;
34146;SDS011;20423;49.448;9.056;2022-12-29T04:39:58;7.32;;;3.88;;
34146;SDS011;20423;49.448;9.056;2022-12-29T04:42:24;5.65;;;2.97;;
34146;SDS011;20423;49.448;9.056;2022-12-29T04:44:51;5.05;;;3.03;;
34146;SDS011;20423;49.448;9.056;2022-12-29T04:47:46;15.02;;;6.15;;
34146;SDS011;20423;49.448;9.056;2022-12-29T04:50:31;11.05;;;4.43;;
34146;SDS011;20423;49.448;9.056;2022-12-29T04:53:32;6.32;;;2.75;;
34146;SDS011;20423;49.448;9.056;2022-12-29T04:55:58;5.78;;;2.83;;
34146;SDS011;20423;49.448;9.056;2022-12-29T04:58:25;7.50;;;2.88;;
34146;SDS011;20423;49.448;9.056;2022-12-29T05:00:51;6.65;;;3.33;;
34146;SDS011;20423;49.448;9.056;2022-12-29T05:03:20;5.82;;;2.95;;
34146;SDS011;20423;49.448;9.056;2022-12-29T05:05:46;7.25;;;2.67;;
34146;SDS011;20423;49.448;9.056;2022-12-29T05:08:12;8.52;;;2.63;;
34146;SDS011;20423;49.448;9.056;2022-12-29T05:10:37;10.18;;;3.40;;
34146;SDS011;20423;49.448;9.056;2022-12-29T05:15:34;5.20;;;2.50;;
34146;SDS011;20423;49.448;9.056;2022-12-29T05:18:00;3.67;;;2.08;;
34146;SDS011;20423;49.448;9.056;2022-12-29T05:20:27;5.10;;;2.38;;
34146;SDS011;20423;49.448;9.056;2022-12-29T05:22:55;7.93;;;3.00;;
34146;SDS011;20423;49.448;9.056;2022-12-29T05:25:22;8.60;;;3.13;;
34146;SDS011;20423;49.448;9.056;2022-12-29T05:28:08;3.70;;;2.67;;
34146;SDS011;20423;49.448;9.056;2022-12-29T05:30:44;3.55;;;2.38;;
34146;SDS011;20423;49.448;9.056;2022-12-29T05:33:14;8.52;;;2.83;;
34146;SDS011;20423;49.448;9.056;2022-12-29T05:35:52;5.43;;;2.30;;
34146;SDS011;20423;49.448;9.056;2022-12-29T05:38:21;9.13;;;2.50;;
34146;SDS011;20423;49.448;9.056;2022-12-29T05:40:46;7.78;;;2.63;;
34146;SDS011;20423;49.448;9.056;2022-12-29T05:43:48;6.20;;;2.90;;
34146;SDS011;20423;49.448;9.056;2022-12-29T05:46:33;8.10;;;2.40;;
34146;SDS011;20423;49.448;9.056;2022-12-29T05:49:07;6.63;;;2.60;;
34146;SDS011;20423;49.448;9.056;2022-12-29T05:51:51;4.90;;;2.17;;
34146;SDS011;20423;49.448;9.056;2022-12-29T05:54:17;8.43;;;2.20;;
34146;SDS011;20423;49.448;9.056;2022-12-29T05:56:43;4.43;;;2.78;;
34146;SDS011;20423;49.448;9.056;2022-12-29T05:59:09;4.60;;;2.25;;
34146;SDS011;20423;49.448;9.056;2022-12-29T06:01:35;5.60;;;3.00;;
34146;SDS011;20423;49.448;9.056;2022-12-29T06:04:01;7.55;;;2.42;;
34146;SDS011;20423;49.448;9.056;2022-12-29T06:06:27;4.72;;;2.47;;
34146;SDS011;20423;49.448;9.056;2022-12-29T06:08:53;5.05;;;2.58;;
34146;SDS011;20423;49.448;9.056;2022-12-29T06:11:19;7.35;;;3.15;;
34146;SDS011;20423;49.448;9.056;2022-12-29T06:13:52;7.32;;;2.38;;
34146;SDS011;20423;49.448;9.056;2022-12-29T06:16:17;3.60;;;2.33;;
34146;SDS011;20423;49.448;9.056;2022-12-29T06:18:44;7.07;;;3.10;;
34146;SDS011;20423;49.448;9.056;2022-12-29T06:21:09;4.03;;;2.70;;
34146;SDS011;20423;49.448;9.056;2022-12-29T06:23:35;6.00;;;2.38;;
34146;SDS011;20423;49.448;9.056;2022-12-29T06:26:03;7.32;;;3.22;;
34146;SDS011;20423;49.448;9.056;2022-12-29T06:28:28;7.90;;;2.92;;
34146;SDS011;20423;49.448;9.056;2022-12-29T06:30:54;7.22;;;2.83;;
34146;SDS011;20423;49.448;9.056;2022-12-29T06:33:20;7.20;;;3.03;;
34146;SDS011;20423;49.448;9.056;2022-12-29T06:35:46;5.38;;;2.95;;
34146;SDS011;20423;49.448;9.056;2022-12-29T06:38:13;6.72;;;3.20;;
34146;SDS011;20423;49.448;9.056;2022-12-29T06:40:38;9.68;;;2.97;;
34146;SDS011;20423;49.448;9.056;2022-12-29T06:43:09;5.53;;;2.92;;
34146;SDS011;20423;49.448;9.056;2022-12-29T06:45:42;5.60;;;2.90;;
34146;SDS011;20423;49.448;9.056;2022-12-29T06:48:08;5.85;;;2.78;;
34146;SDS011;20423;49.448;9.056;2022-12-29T06:50:34;8.80;;;2.70;;
34146;SDS011;20423;49.448;9.056;2022-12-29T06:53:00;5.18;;;2.50;;
34146;SDS011;20423;49.448;9.056;2022-12-29T06:55:25;9.35;;;2.90;;
34146;SDS011;20423;49.448;9.056;2022-12-29T06:57:53;4.47;;;2.72;;
34146;SDS011;20423;49.448;9.056;2022-12-29T07:00:23;4.97;;;2.95;;
34146;SDS011;20423;49.448;9.056;2022-12-29T07:02:49;4.45;;;2.63;;
34146;SDS011;20423;49.448;9.056;2022-12-29T07:05:15;6.88;;;3.22;;
34146;SDS011;20423;49.448;9.056;2022-12-29T07:07:41;10.05;;;4.18;;
34146;SDS011;20423;49.448;9.056;2022-12-29T07:10:06;8.52;;;3.47;;
34146;SDS011;20423;49.448;9.056;2022-12-29T07:12:32;6.03;;;3.10;;
34146;SDS011;20423;49.448;9.056;2022-12-29T07:14:58;9.38;;;3.30;;
34146;SDS011;20423;49.448;9.056;2022-12-29T07:17:24;5.65;;;3.20;;
34146;SDS011;20423;49.448;9.056;2022-12-29T07:19:50;6.15;;;2.80;;
34146;SDS011;20423;49.448;9.056;2022-12-29T07:22:15;6.07;;;2.70;;
34146;SDS011;20423;49.448;9.056;2022-12-29T07:24:41;5.10;;;2.80;;
34146;SDS011;20423;49.448;9.056;2022-12-29T07:27:08;6.32;;;3.20;;
34146;SDS011;20423;49.448;9.056;2022-12-29T07:29:36;6.50;;;2.65;;
34146;SDS011;20423;49.448;9.056;2022-12-29T07:32:03;4.30;;;2.50;;
34146;SDS011;20423;49.448;9.056;2022-12-29T07:34:29;4.43;;;2.70;;
34146;SDS011;20423;49.448;9.056;2022-12-29T07:36:55;5.95;;;2.30;;
34146;SDS011;20423;49.448;9.056;2022-12-29T07:39:21;3.88;;;2.30;;
34146;SDS011;20423;49.448;9.056;2022-12-29T07:41:46;6.65;;;2.42;;
34146;SDS011;20423;49.448;9.056;2022-12-29T07:44:16;5.30;;;2.40;;
34146;SDS011;20423;49.448;9.056;2022-12-29T07:49:24;6.40;;;2.40;;
34146;SDS011;20423;49.448;9.056;2022-12-29T07:51:49;4.93;;;2.35;;
34146;SDS011;20423;49.448;9.056;2022-12-29T07:54:15;5.15;;;2.70;;
34146;SDS011;20423;49.448;9.056;2022-12-29T07:56:43;7.20;;;2.97;;
34146;SDS011;20423;49.448;9.056;2022-12-29T07:59:09;19.88;;;5.43;;
34146;SDS011;20423;49.448;9.056;2022-12-29T08:01:37;3.90;;;2.20;;
34146;SDS011;20423;49.448;9.056;2022-12-29T08:04:04;6.60;;;2.47;;
34146;SDS011;20423;49.448;9.056;2022-12-29T08:06:30;9.02;;;2.55;;
34146;SDS011;20423;49.448;9.056;2022-12-29T08:08:56;10.02;;;2.63;;
34146;SDS011;20423;49.448;9.056;2022-12-29T08:11:22;9.98;;;2.70;;
34146;SDS011;20423;49.448;9.056;2022-12-29T08:13:48;5.07;;;2.60;;
34146;SDS011;20423;49.448;9.056;2022-12-29T08:16:14;7.47;;;2.42;;
34146;SDS011;20423;49.448;9.056;2022-12-29T08:18:40;5.80;;;3.03;;
34146;SDS011;20423;49.448;9.056;2022-12-29T08:21:06;5.82;;;3.00;;
34146;SDS011;20423;49.448;9.056;2022-12-29T08:23:31;8.05;;;2.90;;
34146;SDS011;20423;49.448;9.056;2022-12-29T08:25:58;6.68;;;2.60;;
34146;SDS011;20423;49.448;9.056;2022-12-29T08:31:24;7.38;;;3.10;;
34146;SDS011;20423;49.448;9.056;2022-12-29T08:33:50;8.80;;;3.80;;
34146;SDS011;20423;49.448;9.056;2022-12-29T08:36:16;8.43;;;3.10;;
34146;SDS011;20423;49.448;9.056;2022-12-29T08:38:42;4.75;;;2.50;;
34146;SDS011;20423;49.448;9.056;2022-12-29T08:41:08;10.70;;;3.50;;
34146;SDS011;20423;49.448;9.056;2022-12-29T08:43:33;5.15;;;2.78;;
34146;SDS011;20423;49.448;9.056;2022-12-29T08:45:59;9.75;;;3.20;;
34146;SDS011;20423;49.448;9.056;2022-12-29T08:48:25;7.40;;;2.85;;
34146;SDS011;20423;49.448;9.056;2022-12-29T08:50:51;9.68;;;3.63;;
34146;SDS011;20423;49.448;9.056;2022-12-29T08:53:17;5.18;;;2.83;;
34146;SDS011;20423;49.448;9.056;2022-12-29T08:55:46;6.18;;;2.83;;
34146;SDS011;20423;49.448;9.056;2022-12-29T08:58:19;9.45;;;3.40;;
34146;SDS011;20423;49.448;9.056;2022-12-29T09:00:45;8.18;;;3.00;;
34146;SDS011;20423;49.448;9.056;2022-12-29T09:03:10;14.38;;;3.30;;
34146;SDS011;20423;49.448;9.056;2022-12-29T09:05:36;5.57;;;2.90;;
34146;SDS011;20423;49.448;9.056;2022-12-29T09:08:02;11.40;;;2.85;;
34146;SDS011;20423;49.448;9.056;2022-12-29T09:10:29;7.82;;;2.97;;
34146;SDS011;20423;49.448;9.056;2022-12-29T09:12:55;7.00;;;2.55;;
34146;SDS011;20423;49.448;9.056;2022-12-29T09:15:21;8.07;;;3.25;;
34146;SDS011;20423;49.448;9.056;2022-12-29T09:17:46;5.22;;;3.03;;
34146;SDS011;20423;49.448;9.056;2022-12-29T09:20:13;7.35;;;3.00;;
34146;SDS011;20423;49.448;9.056;2022-12-29T09:22:41;6.88;;;3.13;;
34146;SDS011;20423;49.448;9.056;2022-12-29T09:25:08;7.60;;;3.00;;
34146;SDS011;20423;49.448;9.056;2022-12-29T09:27:34;9.75;;;2.72;;
34146;SDS011;20423;49.448;9.056;2022-12-29T09:30:01;8.07;;;3.38;;
34146;SDS011;20423;49.448;9.056;2022-12-29T09:32:28;8.20;;;2.88;;
34146;SDS011;20423;49.448;9.056;2022-12-29T09:34:56;6.60;;;2.80;;
34146;SDS011;20423;49.448;9.056;2022-12-29T09:37:22;7.43;;;2.97;;
34146;SDS011;20423;49.448;9.056;2022-12-29T09:39:48;6.60;;;3.00;;
34146;SDS011;20423;49.448;9.056;2022-12-29T09:46:15;7.15;;;3.20;;
34146;SDS011;20423;49.448;9.056;2022-12-29T09:48:44;5.40;;;2.80;;
34146;SDS011;20423;49.448;9.056;2022-12-29T09:51:15;8.18;;;3.65;;
34146;SDS011;20423;49.448;9.056;2022-12-29T09:53:49;5.82;;;3.45;;
34146;SDS011;20423;49.448;9.056;2022-12-29T09:56:21;10.15;;;4.43;;
34146;SDS011;20423;49.448;9.056;2022-12-29T09:58:54;10.43;;;3.72;;
34146;SDS011;20423;49.448;9.056;2022-12-29T10:01:41;9.07;;;4.45;;
34146;SDS011;20423;49.448;9.056;2022-12-29T10:04:18;9.75;;;4.68;;
34146;SDS011;20423;49.448;9.056;2022-12-29T10:07:04;9.43;;;4.88;;
34146;SDS011;20423;49.448;9.056;2022-12-29T10:13:02;17.88;;;6.20;;
34146;SDS011;20423;49.448;9.056;2022-12-29T10:24:12;12.48;;;5.60;;
34146;SDS011;20423;49.448;9.056;2022-12-29T10:26:42;12.57;;;5.63;;
34146;SDS011;20423;49.448;9.056;2022-12-29T10:29:18;9.23;;;4.95;;
34146;SDS011;20423;49.448;9.056;2022-12-29T10:32:00;10.68;;;4.85;;
34146;SDS011;20423;49.448;9.056;2022-12-29T10:34:55;13.35;;;4.97;;
34146;SDS011;20423;49.448;9.056;2022-12-29T10:40:28;10.07;;;4.68;;
34146;SDS011;20423;49.448;9.056;2022-12-29T10:45:54;12.57;;;4.80;;
34146;SDS011;20423;49.448;9.056;2022-12-29T10:48:31;9.43;;;4.20;;
34146;SDS011;20423;49.448;9.056;2022-12-29T10:50:59;12.13;;;4.60;;
34146;SDS011;20423;49.448;9.056;2022-12-29T10:53:48;7.13;;;4.10;;
34146;SDS011;20423;49.448;9.056;2022-12-29T10:56:25;9.70;;;4.32;;
34146;SDS011;20423;49.448;9.056;2022-12-29T10:58:54;8.77;;;4.07;;
34146;SDS011;20423;49.448;9.056;2022-12-29T11:01:22;6.90;;;3.85;;
34146;SDS011;20423;49.448;9.056;2022-12-29T11:13:26;8.45;;;3.67;;
34146;SDS011;20423;49.448;9.056;2022-12-29T11:15:51;10.80;;;3.63;;
34146;SDS011;20423;49.448;9.056;2022-12-29T11:21:38;9.82;;;3.55;;
34146;SDS011;20423;49.448;9.056;2022-12-29T11:24:20;9.38;;;3.22;;
34146;SDS011;20423;49.448;9.056;2022-12-29T11:26:51;6.63;;;2.78;;
34146;SDS011;20423;49.448;9.056;2022-12-29T11:29:26;6.32;;;2.90;;
34146;SDS011;20423;49.448;9.056;2022-12-29T11:31:58;5.85;;;2.78;;
34146;SDS011;20423;49.448;9.056;2022-12-29T11:37:02;6.15;;;2.90;;
34146;SDS011;20423;49.448;9.056;2022-12-29T11:42:14;5.28;;;3.13;;
34146;SDS011;20423;49.448;9.056;2022-12-29T11:44:43;5.60;;;2.53;;
34146;SDS011;20423;49.448;9.056;2022-12-29T11:47:13;8.63;;;3.17;;
34146;SDS011;20423;49.448;9.056;2022-12-29T11:49:52;6.45;;;2.90;;
34146;SDS011;20423;49.448;9.056;2022-12-29T11:52:22;5.97;;;3.13;;
34146;SDS011;20423;49.448;9.056;2022-12-29T11:54:50;5.80;;;2.67;;
34146;SDS011;20423;49.448;9.056;2022-12-29T11:57:18;12.43;;;2.95;;
34146;SDS011;20423;49.448;9.056;2022-12-29T11:59:52;6.60;;;3.00;;
34146;SDS011;20423;49.448;9.056;2022-12-29T12:04:54;6.32;;;2.95;;
34146;SDS011;20423;49.448;9.056;2022-12-29T12:07:37;7.32;;;2.85;;
34146;SDS011;20423;49.448;9.056;2022-12-29T12:10:04;6.10;;;2.60;;
34146;SDS011;20423;49.448;9.056;2022-12-29T12:12:35;5.70;;;2.20;;
34146;SDS011;20423;49.448;9.056;2022-12-29T12:15:06;5.00;;;2.90;;
34146;SDS011;20423;49.448;9.056;2022-12-29T12:17:54;8.85;;;2.55;;
34146;SDS011;20423;49.448;9.056;2022-12-29T12:20:45;4.95;;;2.60;;
34146;SDS011;20423;49.448;9.056;2022-12-29T12:23:16;7.88;;;3.40;;
34146;SDS011;20423;49.448;9.056;2022-12-29T12:26:09;5.70;;;2.85;;
34146;SDS011;20423;49.448;9.056;2022-12-29T12:34:35;6.25;;;2.95;;
34146;SDS011;20423;49.448;9.056;2022-12-29T12:45:45;8.20;;;3.30;;
34146;SDS011;20423;49.448;9.056;2022-12-29T13:10:52;9.23;;;3.95;;
34146;SDS011;20423;49.448;9.056;2022-12-29T13:19:23;8.13;;;3.30;;
34146;SDS011;20423;49.448;9.056;2022-12-29T13:22:21;8.98;;;2.97;;
34146;SDS011;20423;49.448;9.056;2022-12-29T13:25:31;9.25;;;4.28;;
34146;SDS011;20423;49.448;9.056;2022-12-29T13:31:06;24.17;;;8.43;;
34146;SDS011;20423;49.448;9.056;2022-12-29T13:36:44;6.82;;;2.72;;
34146;SDS011;20423;49.448;9.056;2022-12-29T13:39:23;5.93;;;2.88;;
34146;SDS011;20423;49.448;9.056;2022-12-29T13:41:54;8.60;;;2.10;;
34146;SDS011;20423;49.448;9.056;2022-12-29T13:46:49;6.65;;;2.53;;
34146;SDS011;20423;49.448;9.056;2022-12-29T13:49:19;6.10;;;1.77;;
34146;SDS011;20423;49.448;9.056;2022-12-29T13:51:54;6.53;;;2.60;;
34146;SDS011;20423;49.448;9.056;2022-12-29T13:54:35;7.95;;;2.90;;
34146;SDS011;20423;49.448;9.056;2022-12-29T13:57:28;6.90;;;3.10;;
34146;SDS011;20423;49.448;9.056;2022-12-29T14:00:21;8.18;;;4.22;;
34146;SDS011;20423;49.448;9.056;2022-12-29T14:06:12;9.75;;;4.05;;
34146;SDS011;20423;49.448;9.056;2022-12-29T14:08:45;6.93;;;3.70;;
34146;SDS011;20423;49.448;9.056;2022-12-29T14:11:14;8.98;;;4.03;;
34146;SDS011;20423;49.448;9.056;2022-12-29T14:13:45;16.15;;;5.18;;
34146;SDS011;20423;49.448;9.056;2022-12-29T14:16:23;12.07;;;6.13;;
34146;SDS011;20423;49.448;9.056;2022-12-29T14:19:26;14.52;;;7.97;;
34146;SDS011;20423;49.448;9.056;2022-12-29T14:22:03;8.48;;;4.78;;
34146;SDS011;20423;49.448;9.056;2022-12-29T14:34:46;17.48;;;8.98;;
34146;SDS011;20423;49.448;9.056;2022-12-29T14:40:40;13.82;;;7.32;;
34146;SDS011;20423;49.448;9.056;2022-12-29T14:42:51;8.65;;;5.63;;
34146;SDS011;20423;49.448;9.056;2022-12-29T14:47:46;10.00;;;5.80;;
34146;SDS011;20423;49.448;9.056;2022-12-29T14:52:45;23.75;;;10.20;;
34146;SDS011;20423;49.448;9.056;2022-12-29T14:57:40;8.10;;;4.40;;
34146;SDS011;20423;49.448;9.056;2022-12-29T15:02:38;11.23;;;5.20;;
34146;SDS011;20423;49.448;9.056;2022-12-29T15:05:22;9.95;;;4.22;;
34146;SDS011;20423;49.448;9.056;2022-12-29T15:07:59;12.85;;;5.75;;
34146;SDS011;20423;49.448;9.056;2022-12-29T15:10:27;12.07;;;5.57;;
34146;SDS011;20423;49.448;9.056;2022-12-29T15:13:05;6.90;;;3.58;;
34146;SDS011;20423;49.448;9.056;2022-12-29T15:15:40;12.90;;;6.50;;
34146;SDS011;20423;49.448;9.056;2022-12-29T15:18:13;13.80;;;7.13;;
34146;SDS011;20423;49.448;9.056;2022-12-29T15:20:51;10.57;;;5.38;;
34146;SDS011;20423;49.448;9.056;2022-12-29T15:23:19;6.10;;;4.15;;
34146;SDS011;20423;49.448;9.056;2022-12-29T15:25:55;6.53;;;4.35;;
34146;SDS011;20423;49.448;9.056;2022-12-29T15:28:23;27.20;;;15.85;;
34146;SDS011;20423;49.448;9.056;2022-12-29T15:30:56;14.75;;;7.30;;
34146;SDS011;20423;49.448;9.056;2022-12-29T15:33:28;4.93;;;2.47;;
34146;SDS011;20423;49.448;9.056;2022-12-29T15:35:55;2.80;;;1.63;;
34146;SDS011;20423;49.448;9.056;2022-12-29T15:38:28;5.50;;;2.53;;
34146;SDS011;20423;49.448;9.056;2022-12-29T15:40:55;4.85;;;2.70;;
34146;SDS011;20423;49.448;9.056;2022-12-29T15:46:14;6.53;;;2.25;;
34146;SDS011;20423;49.448;9.056;2022-12-29T15:48:40;7.20;;;2.20;;
34146;SDS011;20423;49.448;9.056;2022-12-29T15:51:27;5.68;;;2.85;;
34146;SDS011;20423;49.448;9.056;2022-12-29T15:53:55;18.50;;;6.97;;
34146;SDS011;20423;49.448;9.056;2022-12-29T15:56:22;18.27;;;6.97;;
34146;SDS011;20423;49.448;9.056;2022-12-29T15:58:49;10.73;;;4.63;;
34146;SDS011;20423;49.448;9.056;2022-12-29T16:01:17;7.93;;;3.50;;
34146;SDS011;20423;49.448;9.056;2022-12-29T16:03:44;11.63;;;5.82;;
34146;SDS011;20423;49.448;9.056;2022-12-29T16:09:06;10.75;;;6.10;;
34146;SDS011;20423;49.448;9.056;2022-12-29T16:11:53;11.27;;;5.50;;
34146;SDS011;20423;49.448;9.056;2022-12-29T16:14:25;7.88;;;4.25;;
34146;SDS011;20423;49.448;9.056;2022-12-29T16:17:00;14.30;;;7.10;;
34146;SDS011;20423;49.448;9.056;2022-12-29T16:19:29;10.95;;;3.55;;
34146;SDS011;20423;49.448;9.056;2022-12-29T16:21:59;5.15;;;3.33;;
34146;SDS011;20423;49.448;9.056;2022-12-29T16:24:29;6.72;;;3.00;;
34146;SDS011;20423;49.448;9.056;2022-12-29T16:29:31;6.45;;;2.40;;
34146;SDS011;20423;49.448;9.056;2022-12-29T16:31:58;19.63;;;10.63;;
34146;SDS011;20423;49.448;9.056;2022-12-29T16:37:04;20.45;;;8.45;;
34146;SDS011;20423;49.448;9.056;2022-12-29T16:39:49;26.67;;;11.27;;
34146;SDS011;20423;49.448;9.056;2022-12-29T16:42:34;18.13;;;10.38;;
34146;SDS011;20423;49.448;9.056;2022-12-29T16:45:20;12.63;;;5.70;;
34146;SDS011;20423;49.448;9.056;2022-12-29T16:50:39;9.52;;;3.45;;
34146;SDS011;20423;49.448;9.056;2022-12-29T16:53:21;13.00;;;4.60;;
34146;SDS011;20423;49.448;9.056;2022-12-29T16:55:54;15.00;;;4.00;;
34146;SDS011;20423;49.448;9.056;2022-12-29T16:58:23;14.88;;;5.05;;
34146;SDS011;20423;49.448;9.056;2022-12-29T17:00:52;7.85;;;3.55;;
34146;SDS011;20423;49.448;9.056;2022-12-29T17:03:22;7.82;;;3.17;;
34146;SDS011;20423;49.448;9.056;2022-12-29T17:06:09;7.80;;;4.18;;
34146;SDS011;20423;49.448;9.056;2022-12-29T17:09:17;14.77;;;6.07;;
34146;SDS011;20423;49.448;9.056;2022-12-29T17:11:44;17.00;;;8.55;;
34146;SDS011;20423;49.448;9.056;2022-12-29T17:22:52;23.77;;;14.02;;
34146;SDS011;20423;49.448;9.056;2022-12-29T17:25:21;21.40;;;13.93;;
34146;SDS011;20423;49.448;9.056;2022-12-29T17:28:00;27.92;;;15.52;;
34146;SDS011;20423;49.448;9.056;2022-12-29T17:30:43;29.95;;;15.20;;
34146;SDS011;20423;49.448;9.056;2022-12-29T17:33:11;49.22;;;25.42;;
34146;SDS011;20423;49.448;9.056;2022-12-29T17:35:39;33.30;;;19.02;;
34146;SDS011;20423;49.448;9.056;2022-12-29T17:38:18;32.22;;;16.85;;
34146;SDS011;20423;49.448;9.056;2022-12-29T17:40:45;23.73;;;14.90;;
34146;SDS011;20423;49.448;9.056;2022-12-29T17:43:12;25.50;;;16.85;;
34146;SDS011;20423;49.448;9.056;2022-12-29T17:45:39;29.02;;;18.95;;
34146;SDS011;20423;49.448;9.056;2022-12-29T17:48:10;34.15;;;18.10;;
34146;SDS011;20423;49.448;9.056;2022-12-29T17:50:37;35.95;;;20.77;;
34146;SDS011;20423;49.448;9.056;2022-12-29T17:53:04;36.03;;;22.20;;
34146;SDS011;20423;49.448;9.056;2022-12-29T17:55:32;49.85;;;23.05;;
34146;SDS011;20423;49.448;9.056;2022-12-29T17:57:58;33.80;;;18.02;;
34146;SDS011;20423;49.448;9.056;2022-12-29T18:00:26;30.27;;;15.87;;
34146;SDS011;20423;49.448;9.056;2022-12-29T18:02:53;34.90;;;15.98;;
34146;SDS011;20423;49.448;9.056;2022-12-29T18:05:20;34.72;;;16.85;;
34146;SDS011;20423;49.448;9.056;2022-12-29T18:07:49;32.60;;;18.65;;
34146;SDS011;20423;49.448;9.056;2022-12-29T18:10:16;33.47;;;17.30;;
34146;SDS011;20423;49.448;9.056;2022-12-29T18:12:43;33.17;;;19.13;;
34146;SDS011;20423;49.448;9.056;2022-12-29T18:15:18;36.38;;;20.30;;
34146;SDS011;20423;49.448;9.056;2022-12-29T18:17:47;38.53;;;18.60;;